createdAt,value
2022-09-12T00:02:02.556Z,12.25
2022-09-12T00:05:48.092Z,10.77
2022-09-12T00:09:29.975Z,10.18
2022-09-12T00:13:12.455Z,10.77
2022-09-12T00:16:58.767Z,11.88
2022-09-12T00:20:47.519Z,9.75
2022-09-12T00:24:29.330Z,11.82
2022-09-12T00:28:12.261Z,14.23
2022-09-12T00:31:54.142Z,10.75
2022-09-12T00:35:42.069Z,12.55
2022-09-12T00:39:23.890Z,9.45
2022-09-12T00:43:06.262Z,10.88
2022-09-12T00:47:14.767Z,10.75
2022-09-12T00:50:56.740Z,9.70
2022-09-12T00:54:50.003Z,12.80
2022-09-12T00:58:45.912Z,10.60
2022-09-12T01:02:28.614Z,11.07
2022-09-12T01:06:28.187Z,13.43
2022-09-12T01:10:11.407Z,10.05
2022-09-12T01:13:54.657Z,13.65
2022-09-12T01:17:55.123Z,13.27
2022-09-12T01:21:59.227Z,9.50
2022-09-12T01:26:01.279Z,10.88
2022-09-12T01:30:01.772Z,11.70
2022-09-12T01:34:11.779Z,13.27
2022-09-12T01:38:29.659Z,10.50
2022-09-12T01:42:27.760Z,9.88
2022-09-12T01:46:29.650Z,10.70
2022-09-12T01:50:35.792Z,12.05
2022-09-12T01:54:27.249Z,12.52
2022-09-12T01:58:14.945Z,11.98
2022-09-12T02:02:03.378Z,10.07
2022-09-12T02:06:01.347Z,11.88
2022-09-12T02:09:46.476Z,11.10
2022-09-12T02:13:31.390Z,13.67
2022-09-12T02:17:23.338Z,12.48
2022-09-12T02:21:06.582Z,10.48
2022-09-12T02:24:54.226Z,10.48
2022-09-12T02:28:41.482Z,13.32
2022-09-12T02:32:46.689Z,12.43
2022-09-12T02:36:31.781Z,11.55
2022-09-12T02:40:14.531Z,11.80
2022-09-12T02:43:56.694Z,14.63
2022-09-12T02:47:50.731Z,13.32
2022-09-12T02:51:33.126Z,11.13
2022-09-12T02:55:15.920Z,11.85
2022-09-12T02:59:02.838Z,10.93
2022-09-12T03:02:58.511Z,15.18
2022-09-12T03:06:55.465Z,12.95
2022-09-12T03:11:16.560Z,13.60
2022-09-12T03:15:19.558Z,12.60
2022-09-12T03:19:32.079Z,11.80
2022-09-12T03:23:39.312Z,12.68
2022-09-12T03:27:37.140Z,11.90
2022-09-12T03:31:20.036Z,12.80
2022-09-12T03:35:02.011Z,14.23
2022-09-12T03:38:44.022Z,12.73
2022-09-12T03:42:25.840Z,12.02
2022-09-12T03:46:07.715Z,10.93
2022-09-12T03:49:49.508Z,10.85
2022-09-12T03:53:31.743Z,10.07
2022-09-12T03:57:13.821Z,14.38
2022-09-12T04:00:55.661Z,16.90
2022-09-12T04:04:37.484Z,13.57
2022-09-12T04:08:19.485Z,11.80
2022-09-12T04:12:01.433Z,10.30
2022-09-12T04:15:43.237Z,12.27
2022-09-12T04:19:26.262Z,13.77
2022-09-12T04:23:08.266Z,9.98
2022-09-12T04:26:50.363Z,10.05
2022-09-12T04:30:34.575Z,10.05
2022-09-12T04:34:16.549Z,9.32
2022-09-12T04:37:58.372Z,11.55
2022-09-12T04:41:41.979Z,9.02
2022-09-12T04:45:23.829Z,10.32
2022-09-12T04:49:06.707Z,14.02
2022-09-12T04:52:53.383Z,8.23
2022-09-12T04:56:39.626Z,9.35
2022-09-12T05:00:21.602Z,11.07
2022-09-12T05:04:04.250Z,9.48
2022-09-12T05:07:46.117Z,8.95
2022-09-12T05:11:53.107Z,9.07
2022-09-12T05:15:32.668Z,13.43
2022-09-12T05:19:14.577Z,9.75
2022-09-12T05:22:56.465Z,11.65
2022-09-12T05:26:38.660Z,10.85
2022-09-12T05:30:20.576Z,14.52
2022-09-12T05:34:07.070Z,11.85
2022-09-12T05:37:48.887Z,11.30
2022-09-12T05:41:33.571Z,13.32
2022-09-12T05:45:15.980Z,12.07
2022-09-12T05:49:02.638Z,11.30
2022-09-12T05:52:44.490Z,13.77
2022-09-12T05:56:28.464Z,17.45
2022-09-12T06:00:10.963Z,11.52
2022-09-12T06:03:55.220Z,15.50
2022-09-12T06:07:37.172Z,12.55
2022-09-12T06:11:21.616Z,12.40
2022-09-12T06:15:03.973Z,11.15
2022-09-12T06:18:50.799Z,10.25
2022-09-12T06:22:32.663Z,13.38
2022-09-12T06:26:16.709Z,15.50
2022-09-12T06:29:59.603Z,14.02
2022-09-12T06:33:45.442Z,12.15
2022-09-12T06:37:27.320Z,9.60
2022-09-12T06:41:12.400Z,10.98
2022-09-12T06:44:54.344Z,14.73
2022-09-12T06:48:41.562Z,14.63
2022-09-12T06:52:23.885Z,11.18
2022-09-12T06:56:09.752Z,10.77
2022-09-12T06:59:51.800Z,11.77
2022-09-12T07:03:35.060Z,12.70
2022-09-12T07:07:16.828Z,10.75
2022-09-12T07:11:01.297Z,11.55
2022-09-12T07:14:43.278Z,9.95
2022-09-12T07:18:25.221Z,13.80
2022-09-12T07:22:07.335Z,13.82
2022-09-12T07:26:00.045Z,16.80
2022-09-12T07:29:41.917Z,9.68
2022-09-12T07:33:27.288Z,14.43
2022-09-12T07:37:09.347Z,16.52
2022-09-12T07:40:51.152Z,13.38
2022-09-12T07:44:33.294Z,11.57
2022-09-12T07:48:15.103Z,14.63
2022-09-12T07:51:57.002Z,13.88
2022-09-12T07:55:38.903Z,14.85
2022-09-12T07:59:41.583Z,17.45
2022-09-12T08:03:23.425Z,15.88
2022-09-12T08:07:06.691Z,14.73
2022-09-12T08:10:48.607Z,18.58
2022-09-12T08:14:31.678Z,15.77
2022-09-12T08:18:13.930Z,9.88
2022-09-12T08:21:55.864Z,16.08
2022-09-12T08:25:38.129Z,11.82
2022-09-12T08:29:36.261Z,10.50
2022-09-12T08:33:22.199Z,9.77
2022-09-12T08:37:08.008Z,9.80
2022-09-12T08:41:25.233Z,11.75
2022-09-12T08:45:22.855Z,9.15
2022-09-12T08:49:17.724Z,9.88
2022-09-12T08:53:20.433Z,13.13
2022-09-12T08:57:09.164Z,15.20
2022-09-12T09:01:10.108Z,6.65
2022-09-12T09:05:06.355Z,10.27
2022-09-12T09:08:51.255Z,11.05
2022-09-12T09:12:49.700Z,9.68
2022-09-12T09:16:44.392Z,7.97
2022-09-12T09:20:37.283Z,7.20
2022-09-12T09:24:26.740Z,7.13
2022-09-12T09:28:19.558Z,6.78
2022-09-12T09:32:13.471Z,6.82
2022-09-12T09:36:29.460Z,8.07
2022-09-12T09:40:35.624Z,7.18
2022-09-12T09:44:22.563Z,8.27
2022-09-12T09:48:20.939Z,6.63
2022-09-12T09:52:06.724Z,5.13
2022-09-12T09:55:51.440Z,2.97
2022-09-12T09:59:34.741Z,3.15
2022-09-12T10:03:50.822Z,4.97
2022-09-12T10:07:33.458Z,3.65
2022-09-12T10:11:48.878Z,5.60
2022-09-12T10:19:42.451Z,3.85
2022-09-12T10:23:42.510Z,2.88
2022-09-12T10:27:34.186Z,3.20
2022-09-12T10:31:29.208Z,4.72
2022-09-12T10:35:55.261Z,4.47
2022-09-12T10:43:38.556Z,2.90
2022-09-12T10:47:24.879Z,2.58
2022-09-12T10:51:25.765Z,2.63
2022-09-12T10:55:15.924Z,2.47
2022-09-12T10:59:06.623Z,1.67
2022-09-12T11:02:57.733Z,2.22
2022-09-12T11:06:58.948Z,3.30
2022-09-12T11:10:46.813Z,3.97
2022-09-12T11:14:36.980Z,4.35
2022-09-12T11:19:14.536Z,2.42
2022-09-12T11:23:28.057Z,4.30
2022-09-12T11:27:40.848Z,3.83
2022-09-12T11:31:39.057Z,3.95
2022-09-12T11:35:32.209Z,4.20
2022-09-12T11:39:17.176Z,3.15
2022-09-12T11:43:07.226Z,3.90
2022-09-12T11:46:52.137Z,2.17
2022-09-12T11:50:34.328Z,1.70
2022-09-12T11:54:38.384Z,8.05
2022-09-12T11:58:29.603Z,3.03
2022-09-12T12:02:17.530Z,2.72
2022-09-12T12:06:06.014Z,2.33
2022-09-12T12:09:52.299Z,3.58
2022-09-12T12:13:53.038Z,3.10
2022-09-12T12:17:37.584Z,3.75
2022-09-12T12:21:33.107Z,3.53
2022-09-12T12:25:19.537Z,4.10
2022-09-12T12:29:03.739Z,3.58
2022-09-12T12:32:45.603Z,2.80
2022-09-12T12:36:39.357Z,3.53
2022-09-12T12:40:25.498Z,3.50
2022-09-12T12:44:59.653Z,4.78
2022-09-12T12:49:30.568Z,3.85
2022-09-12T12:53:28.317Z,2.03
2022-09-12T12:57:13.210Z,4.07
2022-09-12T13:01:10.281Z,3.08
2022-09-12T13:04:54.197Z,2.65
2022-09-12T13:08:41.214Z,3.83
2022-09-12T13:12:30.659Z,5.32
2022-09-12T13:16:30.551Z,5.93
2022-09-12T13:20:30.533Z,1.75
2022-09-12T13:24:17.511Z,3.08
2022-09-12T13:28:11.574Z,2.38
2022-09-12T13:32:00.088Z,2.38
2022-09-12T13:36:19.070Z,3.95
2022-09-12T13:40:34.126Z,4.30
2022-09-12T13:44:19.696Z,2.37
2022-09-12T13:48:03.338Z,5.85
2022-09-12T13:51:45.275Z,5.13
2022-09-12T13:55:33.339Z,5.15
2022-09-12T13:59:16.307Z,2.03
2022-09-12T14:03:18.391Z,2.38
2022-09-12T14:07:03.536Z,4.35
2022-09-12T14:10:50.215Z,4.93
2022-09-12T14:14:36.087Z,3.45
2022-09-12T14:18:37.334Z,2.80
2022-09-12T14:22:19.651Z,3.22
2022-09-12T14:26:05.429Z,4.90
2022-09-12T14:29:52.413Z,2.75
2022-09-12T14:33:48.086Z,2.88
2022-09-12T14:37:30.004Z,2.95
2022-09-12T14:41:21.615Z,4.88
2022-09-12T14:45:14.004Z,3.35
2022-09-12T14:49:01.194Z,4.07
2022-09-12T14:52:43.999Z,2.40
2022-09-12T14:56:44.682Z,3.53
2022-09-12T15:00:26.744Z,5.20
2022-09-12T15:04:08.615Z,3.33
2022-09-12T15:07:59.788Z,4.43
2022-09-12T15:11:41.826Z,3.72
2022-09-12T15:15:23.595Z,2.72
2022-09-12T15:19:05.374Z,3.85
2022-09-12T15:22:47.260Z,3.88
2022-09-12T15:26:30.705Z,3.17
2022-09-12T15:30:16.370Z,7.50
2022-09-12T15:34:00.138Z,3.63
2022-09-12T15:37:42.066Z,3.05
2022-09-12T15:41:29.903Z,3.42
2022-09-12T15:45:26.056Z,3.78
2022-09-12T15:49:07.916Z,3.60
2022-09-12T15:52:51.442Z,3.88
2022-09-12T15:56:33.387Z,3.78
2022-09-12T16:00:17.794Z,2.58
2022-09-12T16:04:02.039Z,4.70
2022-09-12T16:07:45.282Z,3.13
2022-09-12T16:11:29.068Z,5.32
2022-09-12T16:15:13.988Z,4.00
2022-09-12T16:18:58.530Z,4.85
2022-09-12T16:22:40.462Z,4.13
2022-09-12T16:26:22.224Z,5.38
2022-09-12T16:30:06.646Z,2.63
2022-09-12T16:33:51.560Z,5.05
2022-09-12T16:37:34.688Z,3.97
2022-09-12T16:41:18.643Z,3.25
2022-09-12T16:45:00.524Z,5.60
2022-09-12T16:48:49.572Z,5.53
2022-09-12T16:52:36.694Z,3.58
2022-09-12T16:56:18.930Z,2.92
2022-09-12T17:00:00.882Z,5.50
2022-09-12T17:03:43.336Z,6.47
2022-09-12T17:07:25.300Z,3.72
2022-09-12T17:11:13.050Z,3.65
2022-09-12T17:14:54.813Z,5.70
2022-09-12T17:18:37.046Z,4.00
2022-09-12T17:22:19.692Z,3.45
2022-09-12T17:26:03.852Z,3.00
2022-09-12T17:29:47.010Z,3.22
2022-09-12T17:33:29.293Z,3.42
2022-09-12T17:37:11.467Z,1.88
2022-09-12T17:40:59.905Z,2.75
2022-09-12T17:44:42.670Z,3.13
2022-09-12T17:48:24.810Z,4.90
2022-09-12T17:52:06.701Z,5.70
2022-09-12T17:55:51.520Z,3.42
2022-09-12T17:59:36.620Z,2.45
2022-09-12T18:03:27.039Z,2.97
2022-09-12T18:07:09.273Z,2.80
2022-09-12T18:10:53.565Z,1.98
2022-09-12T18:14:35.480Z,2.78
2022-09-12T18:18:17.864Z,2.88
2022-09-12T18:21:59.963Z,3.65
2022-09-12T18:25:42.016Z,3.10
2022-09-12T18:29:30.487Z,5.88
2022-09-12T18:33:13.435Z,2.88
2022-09-12T18:36:55.345Z,3.15
2022-09-12T18:40:37.387Z,3.33
2022-09-12T18:44:19.291Z,4.10
2022-09-12T18:48:06.273Z,3.40
2022-09-12T18:51:48.210Z,5.63
2022-09-12T18:55:32.080Z,6.75
2022-09-12T18:59:15.048Z,5.20
2022-09-12T19:02:56.998Z,6.10
2022-09-12T19:06:41.788Z,4.82
2022-09-12T19:10:23.753Z,8.23
2022-09-12T19:14:06.192Z,8.70
2022-09-12T19:17:48.104Z,5.93
2022-09-12T19:21:31.314Z,5.20
2022-09-12T19:25:13.423Z,6.18
2022-09-12T19:28:56.156Z,5.28
2022-09-12T19:32:38.020Z,5.28
2022-09-12T19:40:23.882Z,2.83
2022-09-12T19:44:05.941Z,5.80
2022-09-12T19:47:47.998Z,5.40
2022-09-12T19:51:29.816Z,3.45
2022-09-12T19:55:11.848Z,5.55
2022-09-12T19:58:56.615Z,3.67
2022-09-12T20:02:38.713Z,5.53
2022-09-12T20:06:20.916Z,6.93
2022-09-12T20:10:02.823Z,4.03
2022-09-12T20:13:45.650Z,7.30
2022-09-12T20:17:27.718Z,4.35
2022-09-12T20:21:14.154Z,6.97
2022-09-12T20:24:56.167Z,4.47
2022-09-12T20:28:39.288Z,4.72
2022-09-12T20:32:21.366Z,8.95
2022-09-12T20:36:15.619Z,5.75
2022-09-12T20:39:57.548Z,5.68
2022-09-12T20:43:40.117Z,4.20
2022-09-12T20:47:25.297Z,4.53
2022-09-12T20:51:07.578Z,3.90
2022-09-12T20:54:49.437Z,4.57
2022-09-12T20:58:31.487Z,6.82
2022-09-12T21:02:15.331Z,5.70
2022-09-12T21:05:57.392Z,5.10
2022-09-12T21:09:39.795Z,5.85
2022-09-12T21:13:21.589Z,4.07
2022-09-12T21:17:05.344Z,5.40
2022-09-12T21:20:53.016Z,6.22
2022-09-12T21:24:34.967Z,6.25
2022-09-12T21:28:17.875Z,5.28
2022-09-12T21:31:59.796Z,6.00
2022-09-12T21:35:41.732Z,5.75
2022-09-12T21:39:23.726Z,5.32
2022-09-12T21:43:09.197Z,3.92
2022-09-12T21:46:53.889Z,5.57
2022-09-12T21:50:35.748Z,4.63
2022-09-12T21:54:19.009Z,5.50
2022-09-12T21:58:00.911Z,3.85
2022-09-12T22:01:45.866Z,8.38
2022-09-12T22:05:32.605Z,2.83
2022-09-12T22:09:17.028Z,4.35
2022-09-12T22:12:58.942Z,3.83
2022-09-12T22:16:41.027Z,5.35
2022-09-12T22:20:23.051Z,3.65
2022-09-12T22:24:23.440Z,5.18
2022-09-12T22:28:05.484Z,7.60
2022-09-12T22:31:47.946Z,3.20
2022-09-12T22:35:29.932Z,4.70
2022-09-12T22:39:12.813Z,5.00
2022-09-12T22:42:55.044Z,6.07
2022-09-12T22:46:38.019Z,5.43
2022-09-12T22:50:20.025Z,4.65
2022-09-12T22:54:02.744Z,6.72
2022-09-12T22:57:44.829Z,4.55
2022-09-12T23:01:27.311Z,6.72
2022-09-12T23:05:09.415Z,8.68
2022-09-12T23:08:51.310Z,8.23
2022-09-12T23:12:33.311Z,5.35
2022-09-12T23:16:24.434Z,5.40
2022-09-12T23:20:06.888Z,5.32
2022-09-12T23:23:49.446Z,7.88
2022-09-12T23:27:31.315Z,6.68
2022-09-12T23:31:13.179Z,5.63
2022-09-12T23:34:54.984Z,3.65
2022-09-12T23:38:37.007Z,5.70
2022-09-12T23:42:19.021Z,6.50
2022-09-12T23:46:01.847Z,7.35
2022-09-12T23:49:45.615Z,6.13
2022-09-12T23:53:27.687Z,4.35
2022-09-12T23:57:09.540Z,9.40
